| time (UTC) | temp C | wind direction | speed KPH | gust KPH | rain 1hr cm | rain 24hr cm | rain mn cm | humidity % | barometer mb |
| 20260507113031 | 18 | 68 | 9.7 | 11.3 | 0.00 | 0.48 | 0.00 | 69 | 1014.8 |
| 20260507111602 | 17 | 68 | 8.0 | 11.3 | 0.00 | 0.48 | 0.00 | 68 | 1014.9 |
| 20260507104557 | 17 | 63 | 8.0 | 11.3 | 0.00 | 0.48 | 0.00 | 69 | 1015.1 |
| 20260507103057 | 17 | 65 | 9.7 | 11.3 | 0.00 | 0.48 | 0.00 | 65 | 1015.1 |
| 20260507101557 | 17 | 61 | 9.7 | 12.9 | 0.00 | 0.48 | 0.00 | 66 | 1015.2 |
| 20260507100055 | 17 | 64 | 8.0 | 9.7 | 0.00 | 0.48 | 0.00 | 65 | 1015.3 |
| 20260507094552 | 17 | 62 | 8.0 | 9.7 | 0.00 | 0.48 | 0.00 | 62 | 1015.3 |
| 20260507093055 | 17 | 68 | 6.4 | 9.7 | 0.00 | 0.48 | 0.00 | 60 | 1015.3 |
| 20260507091550 | 17 | 65 | 6.4 | 9.7 | 0.00 | 0.48 | 0.00 | 59 | 1015.3 |
| 20260507090049 | 17 | 101 | 6.4 | 6.4 | 0.00 | 0.48 | 0.00 | 64 | 1015.2 |
| 20260507084547 | 17 | 79 | 4.8 | 6.4 | 0.00 | 0.48 | 0.00 | 62 | 1015.0 |
| 20260507083044 | 17 | 65 | 6.4 | 8.0 | 0.00 | 0.48 | 0.00 | 62 | 1014.9 |
| 20260507081543 | 17 | 66 | 4.8 | 4.8 | 0.00 | 0.48 | 0.00 | 64 | 1014.8 |
| 20260507080042 | 18 | 86 | 1.6 | 6.4 | 0.00 | 0.48 | 0.00 | 52 | 1014.6 |
| 20260507074539 | 18 | 64 | 3.2 | 6.4 | 0.00 | 0.48 | 0.00 | 53 | 1014.7 |
| 20260507073038 | 18 | 171 | 3.2 | 8.0 | 0.00 | 0.51 | 0.00 | 58 | 1014.6 |
| 20260507073005 | 18 | 184 | 3.2 | 8.0 | 0.00 | 0.51 | 0.00 | 60 | 1014.6 |
| 20260507071558 | 18 | 244 | 1.6 | 8.0 | 0.00 | 0.51 | 0.00 | 59 | 1014.7 |
| 20260507070032 | 17 | 270 | 3.2 | 11.3 | 0.00 | 0.51 | 0.00 | 62 | 1014.7 |
| 20260507064527 | 17 | 268 | 4.8 | 11.3 | 0.00 | 0.51 | 0.00 | 61 | 1014.5 |
| 20260507063057 | 17 | 248 | 4.8 | 9.7 | 0.00 | 0.51 | 0.00 | 65 | 1014.5 |
| 20260507061556 | 16 | 272 | 3.2 | 8.0 | 0.00 | 0.51 | 0.00 | 67 | 1014.3 |
| 20260507060044 | 16 | 241 | 3.2 | 6.4 | 0.00 | 0.51 | 0.00 | 72 | 1014.1 |
| 20260507054541 | 15 | 276 | 3.2 | 8.0 | 0.00 | 0.51 | 0.00 | 73 | 1014.1 |
| 20260507053105 | 15 | 260 | 3.2 | 6.4 | 0.00 | 0.58 | 0.00 | 74 | 1014.0 |
| 20260507051542 | 14 | 257 | 1.6 | 6.4 | 0.00 | 0.58 | 0.00 | 75 | 1013.9 |
| 20260507050036 | 13 | 262 | 1.6 | 6.4 | 0.00 | 0.58 | 0.00 | 77 | 1013.8 |
| 20260507044531 | 12 | 217 | 1.6 | 6.4 | 0.00 | 0.58 | 0.00 | 78 | 1013.4 |
| 20260507043028 | 12 | 212 | 3.2 | 4.8 | 0.00 | 0.58 | 0.00 | 78 | 1013.3 |
| 20260507041528 | 12 | 229 | 1.6 | 4.8 | 0.00 | 0.58 | 0.00 | 79 | 1013.1 |
| 20260507040100 | 12 | 243 | 0.0 | 3.2 | 0.00 | 0.58 | 0.00 | 81 | 1013.0 |
| 20260507034555 | 13 | 225 | 0.0 | 3.2 | 0.00 | 0.58 | 0.00 | 77 | 1013.0 |
| 20260507033051 | 13 | 259 | 1.6 | 6.4 | 0.00 | 0.58 | 0.00 | 76 | 1013.0 |
| 20260507031551 | 13 | 276 | 0.0 | 4.8 | 0.00 | 0.58 | 0.00 | 77 | 1012.8 |
| 20260507030047 | 13 | 266 | 0.0 | 3.2 | 0.00 | 0.58 | 0.00 | 77 | 1012.9 |
| 20260507024545 | 13 | 252 | 0.0 | 6.4 | 0.00 | 0.58 | 0.00 | 76 | 1012.8 |
| 20260507023042 | 13 | 252 | 1.6 | 4.8 | 0.00 | 0.58 | 0.00 | 78 | 1012.9 |
| 20260507021543 | 13 | 279 | 1.6 | 4.8 | 0.00 | 0.58 | 0.00 | 78 | 1013.0 |
| 20260507020041 | 14 | 241 | 0.0 | 4.8 | 0.00 | 0.58 | 0.00 | 78 | 1012.9 |
| 20260507014547 | 14 | 255 | 3.2 | 11.3 | 0.00 | 0.58 | 0.00 | 76 | 1013.0 |
| 20260507013031 | 14 | 262 | 4.8 | 11.3 | 0.00 | 0.58 | 0.48 | 76 | 1012.7 |
| 20260507011538 | 14 | 222 | 4.8 | 12.9 | 0.00 | 0.58 | 0.48 | 78 | 1012.6 |
| 20260507010112 | 14 | 241 | 6.4 | 12.9 | 0.00 | 0.58 | 0.48 | 79 | 1012.6 |
| 20260507004615 | 14 | 210 | 4.8 | 12.9 | 0.00 | 0.58 | 0.48 | 78 | 1012.6 |
| 20260507003029 | 14 | 148 | 3.2 | 11.3 | 0.00 | 0.58 | 0.48 | 78 | 1012.7 |
| 20260507001528 | 14 | 223 | 6.4 | 14.5 | 0.00 | 0.58 | 0.48 | 79 | 1012.6 |
| 20260507000026 | 14 | 207 | 4.8 | 14.5 | 0.03 | 0.58 | 0.48 | 80 | 1012.8 |
| 20260506234525 | 14 | 224 | 1.6 | 8.0 | 0.03 | 0.58 | 0.48 | 80 | 1013.0 |
| 20260506233025 | 14 | 242 | 3.2 | 8.0 | 0.03 | 0.58 | 0.48 | 81 | 1013.2 |
| 20260506231523 | 14 | 258 | 1.6 | 11.3 | 0.03 | 0.58 | 0.48 | 81 | 1013.2 |
| 20260506230020 | 15 | 256 | 4.8 | 11.3 | 0.00 | 0.56 | 0.46 | 79 | 1013.3 |
| 20260506224520 | 15 | 233 | 4.8 | 9.7 | 0.00 | 0.56 | 0.46 | 81 | 1013.3 |
| 20260506223018 | 15 | 293 | 1.6 | 8.0 | 0.00 | 0.56 | 0.46 | 85 | 1013.3 |
| 20260506221517 | 15 | 230 | 0.0 | 1.6 | 0.00 | 0.56 | 0.46 | 85 | 1013.2 |
| 20260506220028 | 15 | 228 | 0.0 | 6.4 | 0.00 | 0.56 | 0.46 | 84 | 1013.1 |
| 20260506214512 | 15 | 288 | 1.6 | 8.0 | 0.00 | 0.56 | 0.46 | 83 | 1013.1 |
| 20260506213012 | 15 | 257 | 3.2 | 14.5 | 0.00 | 0.56 | 0.46 | 82 | 1013.2 |
| 20260506211511 | 15 | 298 | 3.2 | 12.9 | 0.00 | 0.56 | 0.46 | 82 | 1012.9 |
| 20260506210012 | 15 | 259 | 8.0 | 19.3 | 0.03 | 0.56 | 0.46 | 79 | 1013.0 |
| 20260506204508 | 15 | 227 | 4.8 | 11.3 | 0.03 | 0.56 | 0.46 | 83 | 1012.9 |
| 20260506203008 | 15 | 229 | 3.2 | 14.5 | 0.08 | 0.56 | 0.46 | 85 | 1012.9 |
| 20260506201506 | 15 | 198 | 6.4 | 11.3 | 0.08 | 0.56 | 0.46 | 86 | 1012.9 |
| 20260506200004 | 15 | 252 | 0.0 | 6.4 | 0.08 | 0.53 | 0.43 | 86 | 1012.7 |
| 20260506194503 | 15 | 206 | 1.6 | 12.9 | 0.08 | 0.53 | 0.43 | 84 | 1012.4 |
| 20260506193059 | 15 | 233 | 3.2 | 8.0 | 0.03 | 0.48 | 0.38 | 85 | 1012.4 |
| 20260506191608 | 15 | 250 | 0.0 | 6.4 | 0.05 | 0.48 | 0.38 | 86 | 1012.1 |
| 20260506190028 | 15 | 224 | 0.0 | 8.0 | 0.20 | 0.46 | 0.36 | 85 | 1011.9 |
| 20260506184526 | 15 | 248 | 0.0 | 8.0 | 0.25 | 0.46 | 0.36 | 84 | 1011.7 |
| 20260506183132 | 15 | 208 | 0.0 | 3.2 | 0.25 | 0.46 | 0.36 | 83 | 1011.4 |
| 20260506181600 | 15 | 274 | 1.6 | 17.7 | 0.23 | 0.43 | 0.33 | 84 | 1011.7 |
| 20260506180111 | 16 | 311 | 4.8 | 17.7 | 0.08 | 0.25 | 0.15 | 82 | 1011.8 |
| 20260506174545 | 17 | 281 | 3.2 | 12.9 | 0.03 | 0.20 | 0.10 | 78 | 1011.2 |
| 20260506173113 | 17 | 251 | 3.2 | 9.7 | 0.03 | 0.20 | 0.10 | 77 | 1010.8 |
| 20260506173059 | 17 | 236 | 3.2 | 9.7 | 0.03 | 0.20 | 0.10 | 77 | 1010.8 |
| 20260506171546 | 17 | 285 | 4.8 | 14.5 | 0.03 | 0.20 | 0.10 | 77 | 1010.7 |
| 20260506170043 | 16 | 231 | 0.0 | 8.0 | 0.00 | 0.18 | 0.08 | 79 | 1010.6 |
| 20260506164513 | 16 | 302 | 3.2 | 11.3 | 0.00 | 0.18 | 0.08 | 79 | 1010.4 |
| 20260506163015 | 16 | 287 | 1.6 | 6.4 | 0.05 | 0.18 | 0.08 | 79 | 1010.7 |
| 20260506161506 | 16 | 300 | 1.6 | 9.7 | 0.08 | 0.18 | 0.08 | 79 | 1010.8 |
| 20260506160006 | 16 | 218 | 0.0 | 6.4 | 0.08 | 0.18 | 0.08 | 81 | 1011.0 |
| 20260506154503 | 16 | 250 | 3.2 | 14.5 | 0.08 | 0.18 | 0.08 | 80 | 1011.1 |
| 20260506153005 | 16 | 271 | 6.4 | 16.1 | 0.05 | 0.15 | 0.05 | 79 | 1011.1 |
| 20260506151601 | 17 | 274 | 6.4 | 29.0 | 0.00 | 0.10 | 0.00 | 79 | 1011.2 |
| 20260506150101 | 18 | 359 | 4.8 | 17.7 | 0.00 | 0.10 | 0.00 | 76 | 1011.0 |
| 20260506144607 | 20 | 281 | 8.0 | 22.5 | 0.00 | 0.10 | 0.00 | 66 | 1010.6 |
| 20260506143057 | 21 | 230 | 8.0 | 17.7 | 0.00 | 0.10 | 0.00 | 57 | 1010.2 |
| 20260506141553 | 21 | 206 | 12.9 | 20.9 | 0.00 | 0.10 | 0.00 | 58 | 1010.4 |
| 20260506140057 | 21 | 150 | 14.5 | 24.1 | 0.00 | 0.10 | 0.00 | 64 | 1010.4 |
| 20260506134551 | 21 | 160 | 11.3 | 20.9 | 0.00 | 0.10 | 0.00 | 64 | 1010.5 |
| 20260506133049 | 21 | 173 | 16.1 | 27.4 | 0.00 | 0.10 | 0.00 | 65 | 1010.7 |
| 20260506131542 | 21 | 160 | 14.5 | 22.5 | 0.00 | 0.10 | 0.00 | 64 | 1010.9 |
| 20260506130039 | 20 | 233 | 9.7 | 24.1 | 0.00 | 0.10 | 0.00 | 64 | 1011.1 |
| 20260506124540 | 20 | 183 | 14.5 | 27.4 | 0.00 | 0.10 | 0.00 | 69 | 1011.1 |
| 20260506123037 | 20 | 167 | 16.1 | 27.4 | 0.00 | 0.10 | 0.00 | 67 | 1011.1 |
| 20260506121532 | 20 | 160 | 19.3 | 25.7 | 0.00 | 0.10 | 0.00 | 69 | 1011.2 |
| 20260506120033 | 20 | 167 | 17.7 | 27.4 | 0.00 | 0.10 | 0.00 | 65 | 1011.3 |
| 20260506114530 | 20 | 179 | 11.3 | 24.1 | 0.00 | 0.10 | 0.00 | 63 | 1011.4 |